Aérodrome :
LOGIN :

S'inscrire | Disclaimer

   EN    FR    IT 

 










Légende :    VFR   VFR Marginal   IFR   IFR Intensif   IFR Très Intensif
Visi : 
Plafond : 
>= 8 km
>= 3000ft
5 à 8 km
1000 à 3000 ft
1500m à 5 km
500 à 1000 ft
800 à 1500m
200 à 500 ft
< 800m
< 200 ft
Symboles :   Orages  Brouillard  Fortes neiges  Fortes précipitations  Vent > 20 kt
SIGMETs :   Divers  Orages  Givrage  Turbulence  Onde Orograph.  Cendres Volcan.







- Altitude de l'aérodrome : 1197 ft
- Code IATA : SPM


ETAD - Spangdahlem Ab

DERNIER METAR :
  • 241458Z AUTO 06015G21KT 9999 CLR 11/04 A3029 RMK AO2 SLP253 T01120040 55005 TSNO $

METARs EXPIRÉS :
  • 241358Z AUTO 05015G22KT 9999 CLR 11/04 A3028 RMK AO2 SLP250 T01070040 TSNO $
  • 241258Z AUTO 06016KT 9999 CLR 11/04 A3029 RMK AO2 SLP253 T01070037 TSNO $

TAF AMD TAF ETAD
Valide du 24 à 11h jusqu'au 25 à 17h UTC


241117Z 2411/2517 07012G18KT 9999 BKN020 QNH3027INS
TEMPO 2411/2413 BKN018
BECMG 2412/2413 07012G18KT 9999 SCT025 QNH3026INS
BECMG 2418/2419 06010G15KT 9999 SCT020 QNH3029INS
BECMG 2501/2502 06012KT 8000 BR BKN015 QNH3030INS
TEMPO 2504/2508 BKN012
BECMG 2508/2509 06015G20KT 9999 NSW SCT025 QNH3025INS TX13/2415Z TN02/2505Z
Pas de NOTAMs connus pour ce terrain.



MET'MAP, la Météo Aéronautique d'un coup d'oeil ! - Copyright ORBIFLY Décembre 2007 - Disclaimer

ORBIFLY MET'MAP TEAM :

Programmation & Développement : Alexandra Zaïnal
Conception & Développement : Baudouin d'Aumeries
Co-Programmation & Développement : Marc-Olivier Méhu
Soutien technique & logistique : Manuel Goepfert

Contact : metmap@orbifly.com




SOURCES & CREDITS :

   NOAA